Relevés horaires Bierset (Belgique)


Relevés horaires à Bierset - Mardi 30 Juin 2020
Heure UTC1 Température [°C] Vent [km/h] Hum. [%] Pres.4 [hPa] Visi. [Km] Nébu. [octa] Préc.5 [mm] Cond.
2m. Res. Ros. Dir.2 Vit. Moy. Raf.3
23:00 18.6 18.6 13.3 SSO 11.1 11.1 16.7 71 1009(-0.4/3h) 30 7/8 -- --
22:00 18.7 18.7 13.1 SSO 11.1 13.0 18.5 70 1009.3(-0.2/3h) 30 7/8 -- --
21:00 18.9 18.9 13.1 SSO 13.0 16.7 24.1 69 1009.5(0.0/3h) 30 7/8 -- --
20:00 18.7 18.7 13.0 SO 14.8 14.8 22.2 69 1009.4(0.0/3h) 30 7/8 -- --
19:00 19.1 19.1 12.5 SO 14.8 16.7 24.1 66 1009.5(-0.2/3h) 30 7/8 -- --
18:00 19.3 19.3 12.1 SO 14.8 16.7 25.9 63 1009.6(-0.5/3h) 30 7/8 0/12h
--
17:00 19.8 19.8 11.8 SSO 16.7 16.7 22.2 60 1009.3(-1.0/3h) 30 7/8 -- --
16:00 20.3 20.3 11.4 SSO 13.0 16.7 22.2 57 1009.6(-1.3/3h) 30 7/8 -- --
15:00 19.6 19.6 11.2 SSO 14.8 16.7 24.1 58 1010(-1.0/3h) 30 7/8 -- --
14:00 20.3 20.3 11.1 SSO 14.8 14.8 20.4 55 1010.3(-1.0/3h) 30 7/8 -- --
13:00 19.0 19.0 10.2 SO 13.0 16.7 24.1 57 1011(-0.4/3h) 30 7/8 -- --
12:00 20.2 20.2 9.6 SO 14.8 18.5 25.9 50 1011(-0.4/3h) 30 6/8 0/6h
--
11:00 18.2 18.2 9.2 SO 13.0 18.5 25.9 56 1011.5(-0.3/3h) 30 6/8 -- --
10:00 18.5 18.4 8.5 SO 14.8 16.7 24.1 52 1011.4(-0.4/3h) 30 5/8 -- --
09:00 17.5 17 8.2 SO 16.7 16.7 22.2 54 1011.6(-0.2/3h) 30 6/8 -- --
08:00 16.8 16.3 8.4 SO 14.8 14.8 20.4 58 1011.9(-0.2/3h) 30 3/8 -- --
07:00 14.6 14 8.7 SO 11.1 13.0 16.7 68 1012.1(0.2/3h) 30 4/8 -- --
06:00 14.0 13 8.9 SO 13.0 13.0 18.5 71 1012.1(0.1/3h) 30 5/8 0/12h
--
05:00 12.8 11.8 8.0 SO 11.1 11.1 14.8 73 1012.4(-0.1/3h) 30 4/8 -- --
04:00 13.1 12.2 7.3 SO 11.1 11.1 16.7 68 1012.5(-0.1/3h) 30 5/8 -- --
03:00 13.1 12.4 8.0 SO 9.3 11.1 14.8 71 1012.3(-0.5/3h) 30 5/8 -- --
02:00 12.8 12.1 8.0 SSO 9.3 9.3 13.0 73 1012.5(-0.8/3h) 30 3/8 -- --
01:00 12.5 12.1 7.9 SO 7.4 9.3 13.0 74 1012.6(-0.8/3h) 30 3/8 -- --
00:00 13.1 12.4 7.9 SSO 9.3 11.1 16.7 71 1012.9(-0.4/3h) 30 3/8 0/6h
3/24h
--

1 Coordinated Universal Time. Actuellement il est 18:00 locale et 16:00 UTC.

2 Le vent souffle depuis la direction indiquée vers la direction oposée.

3 Les rafales max. sont disponible 40 min après l'heure du relevé.

4 Pour les stations d'altitude (plus de 600m) le géopotentiel du niveau le plus proche de la pression obligatoire est indiqué.

5 Les stations disposant d'un diffuseur peuvent indiquer "trace". Cela signifie que des précipitations ont touchés le sol mais que la quantité est inférieure à 0.1 mm.

Récapitulatif de la journée
Température [°C] Vent [km/h] Ensoleillement4 [h] Precipitations totale5 [mm] Pression [Hpa]
Min1 Max.2 Moy.3 Max. Min Max.
12.4 21.0 14.4 25.9 0 h 0 min 0 1009.0 1012.9

1 Température minimale relevée entre 18:00 UTC la veille et 18:00 UTC le jour donné.

2 Température maximale relevée entre 06:00 UTC le jour donné et 06:00 UTC le lendemain.

3 Vent moyen de la journée basé sur les relevés horaires.

4 Ensoleillement en heures relevé entre 06:00 UTC la veille et 06:00 UTC le jour donné.

5 Précipitations totales tombées entre 06:00 UTC la jour donné et 06:00 UTC le lendemain.

Graphiques horaires